Time;durP1;ratioP1;P1;durP2;ratioP2;P2;SDS_P1;SDS_P2;PMS_P1;PMS_P2;Temp;Humidity;BMP_temperature;BMP_pressure;BME280_temperature;BME280_humidity;BME280_pressure;Samples;Min_cycle;Max_cycle;Signal;HPM_P1;HPM_P2
2024/02/05 00:02:04;;;;;;;10.43;2.95;;;22.50;41.30;;;;;;5032301;28;20220;-50
2024/02/05 00:04:30;;;;;;;12.93;3.40;;;22.60;41.30;;;;;;5031984;28;20263;-50
2024/02/05 00:06:57;;;;;;;14.38;3.20;;;22.60;41.30;;;;;;5031586;28;20728;-52
2024/02/05 00:09:24;;;;;;;11.02;2.80;;;22.60;41.10;;;;;;5032200;28;20279;-54
2024/02/05 00:11:51;;;;;;;11.32;2.97;;;22.60;41.10;;;;;;5032024;28;20232;-53
2024/02/05 00:14:18;;;;;;;8.88;2.70;;;22.70;41.10;;;;;;5031805;28;20189;-50
2024/02/05 00:16:45;;;;;;;14.07;3.42;;;22.70;41.10;;;;;;5032017;28;20216;-54
2024/02/05 00:19:13;;;;;;;10.70;3.08;;;22.70;41.00;;;;;;5032081;28;20738;-50
2024/02/05 00:21:40;;;;;;;11.93;2.95;;;22.70;41.00;;;;;;5031351;28;20220;-53
2024/02/05 00:24:07;;;;;;;13.95;3.13;;;22.70;40.90;;;;;;5032114;28;20250;-52
2024/02/05 00:26:35;;;;;;;13.25;2.78;;;22.70;40.80;;;;;;5031989;28;20188;-48
2024/02/05 00:29:05;;;;;;;18.17;3.50;;;22.80;41.60;;;;;;5031608;28;20188;-52
2024/02/05 00:31:32;;;;;;;10.43;2.70;;;22.70;40.80;;;;;;5031642;28;20192;-48
2024/02/05 00:33:58;;;;;;;10.85;2.95;;;22.70;40.80;;;;;;5031692;28;20204;-54
2024/02/05 00:36:27;;;;;;;8.95;2.72;;;22.70;40.80;;;;;;5031072;28;20283;-53
2024/02/05 00:38:54;;;;;;;9.02;2.80;;;22.60;40.80;;;;;;5032212;28;20192;-53
2024/02/05 00:41:21;;;;;;;11.35;2.58;;;22.60;40.90;;;;;;5031620;28;20249;-51
2024/02/05 00:43:48;;;;;;;13.02;3.03;;;22.60;40.90;;;;;;5035002;28;20192;-50
2024/02/05 00:46:21;;;;;;;11.35;2.80;;;22.60;41.00;;;;;;5035658;28;20275;-51
2024/02/05 00:48:48;;;;;;;10.55;3.13;;;22.50;40.90;;;;;;5035268;28;20650;-53
2024/02/05 00:51:15;;;;;;;12.48;3.22;;;22.50;40.90;;;;;;5034817;28;20267;-48
2024/02/05 00:53:43;;;;;;;11.70;3.25;;;22.50;40.90;;;;;;5035317;28;20323;-50
2024/02/05 00:56:10;;;;;;;14.88;3.33;;;22.50;40.90;;;;;;5035513;28;20199;-52
2024/02/05 00:58:37;;;;;;;8.30;2.72;;;22.50;41.60;;;;;;5034986;28;20231;-52
2024/02/05 01:01:04;;;;;;;12.68;2.95;;;22.50;40.90;;;;;;5035454;28;20195;-50
2024/02/05 01:03:31;;;;;;;10.35;2.88;;;22.50;40.90;;;;;;5035315;28;20228;-51
2024/02/05 01:05:58;;;;;;;9.18;2.80;;;22.50;40.80;;;;;;5034687;28;20692;-49
2024/02/05 01:08:25;;;;;;;14.85;2.80;;;22.50;40.80;;;;;;5035112;28;20307;-51
2024/02/05 01:10:54;;;;;;;14.50;3.28;;;22.50;40.80;;;;;;5035237;28;20275;-53
2024/02/05 01:13:21;;;;;;;13.88;3.33;;;22.50;40.80;;;;;;5034809;28;20702;-47
2024/02/05 01:15:48;;;;;;;13.23;3.08;;;22.50;40.80;;;;;;5035103;28;20189;-50
2024/02/05 01:18:15;;;;;;;16.20;3.00;;;22.50;40.70;;;;;;5035155;28;20280;-50
2024/02/05 01:20:42;;;;;;;10.90;2.80;;;22.60;40.60;;;;;;5035036;28;20208;-53
2024/02/05 01:23:09;;;;;;;7.72;2.38;;;22.60;40.50;;;;;;5033348;28;20730;-53
2024/02/05 01:25:35;;;;;;;10.63;2.80;;;22.60;40.50;;;;;;5040416;28;20661;-53
2024/02/05 01:28:04;;;;;;;15.10;3.30;;;22.60;40.60;;;;;;5054398;28;20218;-49
2024/02/05 01:30:31;;;;;;;12.55;2.72;;;22.70;40.50;;;;;;5054694;28;20222;-51
2024/02/05 01:32:58;;;;;;;19.30;3.42;;;22.70;40.50;;;;;;5054700;28;20607;-49
2024/02/05 01:35:24;;;;;;;10.38;2.50;;;22.70;40.50;;;;;;5053922;28;20286;-48
2024/02/05 01:37:51;;;;;;;10.95;3.15;;;22.70;40.30;;;;;;5054364;28;20223;-50
2024/02/05 01:40:18;;;;;;;14.48;2.97;;;22.70;40.30;;;;;;5054086;28;20715;-52
2024/02/05 01:42:45;;;;;;;15.38;2.80;;;22.70;40.30;;;;;;5053901;28;20727;-53
2024/02/05 01:45:13;;;;;;;9.88;2.97;;;22.70;40.30;;;;;;5054128;28;20565;-52
2024/02/05 01:47:42;;;;;;;11.48;3.22;;;22.70;40.30;;;;;;5054449;28;20298;-52
2024/02/05 01:50:11;;;;;;;9.82;3.53;;;22.60;40.30;;;;;;5053733;28;20321;-47
2024/02/05 01:52:40;;;;;;;8.80;2.83;;;22.60;40.40;;;;;;5054502;28;20231;-53
2024/02/05 01:55:09;;;;;;;12.05;3.03;;;22.60;40.50;;;;;;5053057;28;20200;-50
2024/02/05 01:57:36;;;;;;;10.35;2.70;;;22.50;40.40;;;;;;5053791;28;20305;-53
2024/02/05 02:00:05;;;;;;;10.30;2.92;;;22.50;40.50;;;;;;5054180;28;20188;-53
2024/02/05 02:02:33;;;;;;;14.68;3.00;;;22.50;40.50;;;;;;5053800;28;20215;-49
2024/02/05 02:05:01;;;;;;;13.43;3.00;;;22.50;40.50;;;;;;5053753;28;20188;-51
2024/02/05 02:07:27;;;;;;;15.50;2.85;;;22.50;40.50;;;;;;5054121;28;20302;-49
2024/02/05 02:09:54;;;;;;;12.45;2.80;;;22.50;40.50;;;;;;5054029;28;20218;-55
2024/02/05 02:12:22;;;;;;;11.52;3.28;;;22.50;40.50;;;;;;5053428;28;20234;-52
2024/02/05 02:14:49;;;;;;;10.25;3.03;;;22.50;40.50;;;;;;5053604;28;20203;-49
2024/02/05 02:17:17;;;;;;;11.10;3.30;;;22.50;40.50;;;;;;5054004;28;20215;-53
2024/02/05 02:19:48;;;;;;;9.65;2.95;;;22.50;40.50;;;;;;5053410;28;20192;-52
2024/02/05 02:22:26;;;;;;;18.10;2.85;;;22.50;40.50;;;;;;5053809;28;20309;-51
2024/02/05 02:24:54;;;;;;;13.55;3.70;;;22.50;40.50;;;;;;5053453;28;20184;-52
2024/02/05 02:27:21;;;;;;;11.38;2.95;;;22.50;40.50;;;;;;5053373;28;20219;-52
2024/02/05 02:29:49;;;;;;;8.65;3.13;;;22.50;40.40;;;;;;5053540;28;20187;-50
2024/02/05 02:32:22;;;;;;;13.90;3.03;;;22.60;40.40;;;;;;5053489;28;20226;-49
2024/02/05 02:34:51;;;;;;;11.55;2.92;;;22.60;40.30;;;;;;5052859;28;20448;-52
2024/02/05 02:37:21;;;;;;;13.35;3.40;;;22.60;40.30;;;;;;5053528;28;20311;-51
2024/02/05 02:39:55;;;;;;;11.07;3.05;;;22.60;40.20;;;;;;5053309;28;20192;-56
2024/02/05 02:42:25;;;;;;;16.42;3.47;;;22.70;40.30;;;;;;5053097;28;20226;-49
2024/02/05 02:44:54;;;;;;;17.25;3.17;;;22.70;40.90;;;;;;5053196;28;20283;-50
2024/02/05 02:47:21;;;;;;;12.52;2.70;;;22.70;40.20;;;;;;5053314;28;20270;-51
2024/02/05 02:49:48;;;;;;;8.88;3.17;;;22.70;40.10;;;;;;5052744;28;20284;-48
2024/02/05 02:52:15;;;;;;;13.25;3.05;;;22.70;40.10;;;;;;5052847;28;20651;-56
2024/02/05 02:54:42;;;;;;;16.23;3.28;;;22.80;40.10;;;;;;5053326;28;20206;-50
2024/02/05 02:57:09;;;;;;;12.00;3.20;;;22.70;40.00;;;;;;5052792;28;20230;-48
2024/02/05 02:59:37;;;;;;;14.75;3.03;;;22.70;40.00;;;;;;5052720;28;20603;-51
2024/02/05 03:02:04;;;;;;;9.63;3.13;;;22.60;40.00;;;;;;5053001;28;20251;-51
2024/02/05 03:04:31;;;;;;;11.02;3.45;;;22.60;40.00;;;;;;5052339;28;20261;-50
2024/02/05 03:06:58;;;;;;;11.18;3.10;;;22.60;40.10;;;;;;5052558;28;20222;-49
2024/02/05 03:09:25;;;;;;;11.68;3.75;;;22.60;40.20;;;;;;5052526;28;20599;-52
2024/02/05 03:11:52;;;;;;;13.23;3.38;;;22.50;40.10;;;;;;5052479;28;20192;-50
2024/02/05 03:14:23;;;;;;;13.15;3.22;;;22.50;40.20;;;;;;5052730;28;20250;-53
2024/02/05 03:16:51;;;;;;;9.43;2.92;;;22.50;40.20;;;;;;5052667;28;20270;-53
2024/02/05 03:19:18;;;;;;;13.77;3.15;;;22.50;40.80;;;;;;5052357;28;20198;-49
2024/02/05 03:21:44;;;;;;;12.05;3.42;;;22.50;40.10;;;;;;5052669;28;20198;-51
2024/02/05 03:24:11;;;;;;;12.75;3.22;;;22.50;40.20;;;;;;5052366;28;20552;-53
2024/02/05 03:26:38;;;;;;;19.13;4.03;;;22.50;40.10;;;;;;5052135;28;20282;-53
2024/02/05 03:29:05;;;;;;;12.68;3.10;;;22.50;40.10;;;;;;5052554;28;20188;-49
2024/02/05 03:31:32;;;;;;;17.70;3.30;;;22.50;40.10;;;;;;5052280;28;20552;-50
2024/02/05 03:34:00;;;;;;;15.60;3.53;;;22.50;40.10;;;;;;5051756;28;20608;-50
2024/02/05 03:36:27;;;;;;;14.68;3.25;;;22.50;40.20;;;;;;5052372;28;20645;-53
2024/02/05 03:38:54;;;;;;;9.40;2.60;;;22.50;40.10;;;;;;5052344;28;20247;-48
2024/02/05 03:41:21;;;;;;;17.25;3.67;;;22.50;40.10;;;;;;5051710;28;20214;-53
2024/02/05 03:43:48;;;;;;;13.98;3.50;;;22.50;40.00;;;;;;5052904;28;20226;-54
2024/02/05 03:46:15;;;;;;;11.70;3.58;;;22.60;40.10;;;;;;5051996;28;20653;-51
2024/02/05 03:48:50;;;;;;;10.32;2.75;;;22.60;40.00;;;;;;5051953;28;20855;-53
2024/02/05 03:51:18;;;;;;;10.30;3.40;;;22.60;40.00;;;;;;5051615;28;20238;-51
2024/02/05 03:53:45;;;;;;;12.93;3.40;;;22.60;39.90;;;;;;5052368;28;20322;-49
2024/02/05 03:56:12;;;;;;;18.58;3.50;;;22.60;39.90;;;;;;5051944;28;20711;-55
2024/02/05 03:58:39;;;;;;;12.27;3.08;;;22.60;39.80;;;;;;5052273;28;20223;-53
2024/02/05 04:01:06;;;;;;;13.70;3.17;;;22.70;39.90;;;;;;5052204;28;20187;-50
2024/02/05 04:03:33;;;;;;;10.98;3.15;;;22.70;39.80;;;;;;5051508;28;20668;-49
2024/02/05 04:06:00;;;;;;;12.30;3.78;;;22.70;39.70;;;;;;5051844;28;20640;-52
2024/02/05 04:08:28;;;;;;;11.57;3.40;;;22.60;39.70;;;;;;5052031;28;20254;-51
2024/02/05 04:10:56;;;;;;;11.82;3.22;;;22.70;39.70;;;;;;5051705;28;20196;-51
2024/02/05 04:13:23;;;;;;;13.27;2.95;;;22.60;39.70;;;;;;5052172;28;20599;-53
2024/02/05 04:15:50;;;;;;;11.13;2.92;;;22.60;39.80;;;;;;5051710;28;20721;-50
2024/02/05 04:18:17;;;;;;;13.98;3.65;;;22.60;39.90;;;;;;5054379;28;20243;-50
2024/02/05 04:20:44;;;;;;;13.25;3.30;;;22.50;39.90;;;;;;5055678;28;20738;-47
2024/02/05 04:23:10;;;;;;;13.18;2.83;;;22.50;39.90;;;;;;5055773;28;20712;-48
2024/02/05 04:25:39;;;;;;;9.43;3.05;;;22.50;39.90;;;;;;5055590;28;20185;-50
2024/02/05 04:28:06;;;;;;;10.45;2.80;;;22.50;39.90;;;;;;5055706;28;20286;-53
2024/02/05 04:30:37;;;;;;;12.32;3.35;;;22.50;39.90;;;;;;5055911;28;20194;-52
2024/02/05 04:33:04;;;;;;;9.93;2.97;;;22.50;39.90;;;;;;5055223;28;20227;-52
2024/02/05 04:35:31;;;;;;;8.60;2.60;;;22.50;39.90;;;;;;5055755;28;20198;-49
2024/02/05 04:37:58;;;;;;;12.38;3.17;;;22.50;39.90;;;;;;5055851;28;20307;-52
2024/02/05 04:40:25;;;;;;;10.05;2.80;;;22.50;39.90;;;;;;5054987;28;20646;-55
2024/02/05 04:42:53;;;;;;;12.43;2.88;;;22.50;39.90;;;;;;5055738;28;20219;-51
2024/02/05 04:45:20;;;;;;;12.30;2.83;;;22.50;39.90;;;;;;5055658;28;20628;-54
2024/02/05 04:47:47;;;;;;;16.08;3.05;;;22.50;39.90;;;;;;5055224;28;20219;-52
2024/02/05 04:50:14;;;;;;;10.73;2.88;;;22.50;40.00;;;;;;5055138;28;20732;-49
2024/02/05 04:52:41;;;;;;;11.23;3.40;;;22.50;39.90;;;;;;5055403;28;20219;-51
2024/02/05 04:55:08;;;;;;;10.45;2.47;;;22.60;39.90;;;;;;5055261;28;20223;-51
2024/02/05 04:57:35;;;;;;;13.07;3.17;;;22.50;39.70;;;;;;5055100;28;20646;-56
2024/02/05 05:00:05;;;;;;;9.52;2.55;;;22.60;39.80;;;;;;5055081;28;20646;-56
2024/02/05 05:02:32;;;;;;;8.13;2.70;;;22.60;39.80;;;;;;5054951;28;20223;-49
2024/02/05 05:04:59;;;;;;;10.23;3.03;;;22.60;39.70;;;;;;5055250;28;20190;-48
2024/02/05 05:07:26;;;;;;;12.07;3.45;;;22.60;39.70;;;;;;5055207;28;20304;-51
2024/02/05 05:09:53;;;;;;;11.73;2.50;;;22.60;39.60;;;;;;5054871;28;20215;-53
2024/02/05 05:12:20;;;;;;;8.70;3.13;;;22.70;39.70;;;;;;5054790;28;20215;-53
2024/02/05 05:14:47;;;;;;;9.90;2.80;;;22.70;39.60;;;;;;5055045;28;20224;-52
2024/02/05 05:17:15;;;;;;;22.20;3.53;;;22.70;39.60;;;;;;5054724;28;20218;-50
2024/02/05 05:19:42;;;;;;;8.82;2.78;;;22.70;39.60;;;;;;5055026;28;20278;-53
2024/02/05 05:22:08;;;;;;;11.75;2.97;;;22.70;39.60;;;;;;5054556;28;20701;-49
2024/02/05 05:24:35;;;;;;;6.50;2.97;;;22.60;39.50;;;;;;5054681;28;20282;-53
2024/02/05 05:27:02;;;;;;;11.13;2.55;;;22.60;39.70;;;;;;5054733;28;20271;-51
2024/02/05 05:29:29;;;;;;;16.45;2.70;;;22.60;39.70;;;;;;5054505;28;20580;-51
2024/02/05 05:31:56;;;;;;;9.77;2.80;;;22.50;39.70;;;;;;5054786;28;20190;-51
2024/02/05 05:34:24;;;;;;;8.40;2.55;;;22.50;39.70;;;;;;5054337;28;20219;-54
2024/02/05 05:36:51;;;;;;;9.48;2.33;;;22.50;39.70;;;;;;5054578;28;20275;-48
2024/02/05 05:39:19;;;;;;;8.30;2.50;;;22.50;39.70;;;;;;5054226;28;20654;-50
2024/02/05 05:41:46;;;;;;;7.45;2.42;;;22.50;39.70;;;;;;5054214;28;20277;-53
2024/02/05 05:44:13;;;;;;;9.15;2.53;;;22.50;39.70;;;;;;5054289;28;20238;-48
2024/02/05 05:46:40;;;;;;;8.23;2.58;;;22.50;39.70;;;;;;5054351;28;20297;-51
2024/02/05 05:49:07;;;;;;;8.75;2.50;;;22.40;39.70;;;;;;5054264;28;20211;-50
2024/02/05 05:51:35;;;;;;;7.53;2.20;;;22.50;39.70;;;;;;5054170;28;20235;-50
2024/02/05 05:54:02;;;;;;;6.65;2.10;;;22.50;39.70;;;;;;5054423;28;20235;-49
2024/02/05 05:56:29;;;;;;;11.23;2.60;;;22.50;39.70;;;;;;5053861;28;20199;-55
2024/02/05 05:58:56;;;;;;;9.07;2.03;;;22.50;39.70;;;;;;5054290;28;20226;-50
2024/02/05 06:01:23;;;;;;;10.25;2.03;;;22.50;39.70;;;;;;5054175;28;20211;-51
2024/02/05 06:03:50;;;;;;;9.43;2.28;;;22.50;39.60;;;;;;5053914;28;20637;-48
2024/02/05 06:06:17;;;;;;;7.50;2.22;;;22.50;39.60;;;;;;5054176;28;20285;-52
2024/02/05 06:08:45;;;;;;;8.32;2.17;;;22.50;39.50;;;;;;5053965;28;20787;-46
2024/02/05 06:11:12;;;;;;;8.27;2.42;;;22.50;39.50;;;;;;5053372;28;20190;-53
2024/02/05 06:13:39;;;;;;;8.05;2.30;;;22.60;39.50;;;;;;5053543;28;20277;-51
2024/02/05 06:16:09;;;;;;;6.85;2.45;;;22.60;39.50;;;;;;5053603;28;20649;-53
2024/02/05 06:18:36;;;;;;;8.80;2.13;;;22.60;39.50;;;;;;5053032;28;20223;-53
2024/02/05 06:21:04;;;;;;;6.40;2.00;;;22.60;39.40;;;;;;5053535;28;20194;-51
2024/02/05 06:23:31;;;;;;;6.03;1.98;;;22.60;39.40;;;;;;5053731;28;20215;-53
2024/02/05 06:25:59;;;;;;;5.70;1.80;;;22.60;40.00;;;;;;5053477;28;20191;-55
2024/02/05 06:28:26;;;;;;;11.10;2.90;;;22.70;39.40;;;;;;5053419;28;20222;-51
2024/02/05 06:30:53;;;;;;;8.23;2.15;;;22.60;39.30;;;;;;5053543;28;20188;-52
2024/02/05 06:33:19;;;;;;;6.45;1.85;;;22.60;39.40;;;;;;5052748;28;20592;-48
2024/02/05 06:35:46;;;;;;;8.10;1.67;;;22.60;39.40;;;;;;5053534;28;20191;-51
2024/02/05 06:38:14;;;;;;;5.13;2.10;;;22.50;39.30;;;;;;5053389;28;20215;-51
2024/02/05 06:40:41;;;;;;;9.63;2.65;;;22.50;39.40;;;;;;5052090;28;20572;-50
2024/02/05 06:43:09;;;;;;;8.20;2.10;;;22.50;39.40;;;;;;5053380;28;20219;-52
2024/02/05 06:45:37;;;;;;;7.18;1.73;;;22.50;39.50;;;;;;5053372;28;20206;-48
2024/02/05 06:48:04;;;;;;;5.82;1.70;;;22.50;39.60;;;;;;5052868;28;20226;-51
2024/02/05 06:50:31;;;;;;;5.40;1.80;;;22.50;39.60;;;;;;5053026;28;20227;-51
2024/02/05 06:52:58;;;;;;;5.78;1.60;;;22.50;39.60;;;;;;5052996;28;20589;-51
2024/02/05 06:55:25;;;;;;;3.75;1.50;;;22.40;39.50;;;;;;5053273;28;20583;-53
2024/02/05 06:57:52;;;;;;;7.90;2.35;;;22.50;39.60;;;;;;5052827;28;20215;-50
2024/02/05 07:00:20;;;;;;;5.32;1.65;;;22.50;39.50;;;;;;5052655;28;20196;-52
2024/02/05 07:02:47;;;;;;;5.18;1.70;;;22.50;39.60;;;;;;5052727;28;20281;-53
2024/02/05 07:05:14;;;;;;;5.13;2.00;;;22.40;39.50;;;;;;5052722;28;20646;-50
2024/02/05 07:07:41;;;;;;;6.55;2.00;;;22.40;39.50;;;;;;5052945;28;20280;-52
2024/02/05 07:10:08;;;;;;;6.07;1.70;;;22.40;39.50;;;;;;5052281;28;20808;-51
2024/02/05 07:12:35;;;;;;;6.47;2.13;;;22.40;39.60;;;;;;5052618;28;20247;-53
2024/02/05 07:15:02;;;;;;;6.97;2.05;;;22.50;39.60;;;;;;5052721;28;20224;-53
2024/02/05 07:17:34;;;;;;;5.35;1.63;;;22.50;39.50;;;;;;5052081;28;20215;-50
2024/02/05 07:20:02;;;;;;;3.45;1.63;;;22.50;39.40;;;;;;5052764;28;20190;-53
2024/02/05 07:22:29;;;;;;;4.45;1.65;;;22.50;39.40;;;;;;5052688;28;20227;-51
2024/02/05 07:24:57;;;;;;;7.15;1.45;;;22.60;39.40;;;;;;5051937;28;20188;-50
2024/02/05 07:27:25;;;;;;;5.45;1.67;;;22.60;39.40;;;;;;5052564;28;20269;-51
2024/02/05 07:29:53;;;;;;;4.88;1.80;;;22.60;39.40;;;;;;5052262;28;20767;-52
2024/02/05 07:32:19;;;;;;;6.03;1.90;;;22.60;39.40;;;;;;5052021;28;20322;-53
2024/02/05 07:34:48;;;;;;;4.75;1.77;;;22.60;39.40;;;;;;5052091;28;20768;-50
2024/02/05 07:37:15;;;;;;;4.10;1.58;;;22.60;39.30;;;;;;5052423;28;20779;-52
2024/02/05 07:39:41;;;;;;;5.30;1.58;;;22.60;39.30;;;;;;5052001;28;20190;-51
2024/02/05 07:42:08;;;;;;;4.00;1.35;;;22.60;39.30;;;;;;5052415;28;20282;-51
2024/02/05 07:44:35;;;;;;;3.72;1.38;;;22.60;39.30;;;;;;5052355;28;20366;-53
2024/02/05 07:47:02;;;;;;;4.88;1.30;;;22.60;39.30;;;;;;5051572;28;20675;-53
2024/02/05 07:49:29;;;;;;;4.53;1.50;;;22.60;39.40;;;;;;5052330;28;20188;-48
2024/02/05 07:51:57;;;;;;;2.65;1.20;;;22.50;39.40;;;;;;5052160;28;20334;-52
2024/02/05 07:54:27;;;;;;;5.00;1.13;;;22.50;39.40;;;;;;5051808;28;20234;-50
2024/02/05 07:56:55;;;;;;;3.50;1.10;;;22.50;39.50;;;;;;5051852;28;20665;-49
2024/02/05 07:59:22;;;;;;;3.63;1.45;;;22.50;39.50;;;;;;5052216;28;20565;-55
2024/02/05 08:01:49;;;;;;;3.88;1.23;;;22.50;39.50;;;;;;5051613;28;20283;-52
2024/02/05 08:04:16;;;;;;;6.65;1.33;;;22.50;39.50;;;;;;5052206;28;20218;-51
2024/02/05 08:06:43;;;;;;;5.50;1.17;;;22.50;39.50;;;;;;5052084;28;20190;-50
2024/02/05 08:09:12;;;;;;;4.07;1.10;;;22.40;39.40;;;;;;5051506;28;20723;-53
2024/02/05 08:11:39;;;;;;;3.05;1.20;;;22.40;39.50;;;;;;5052082;28;20198;-55
2024/02/05 08:14:06;;;;;;;4.53;1.08;;;22.40;39.50;;;;;;5052220;28;20314;-55
2024/02/05 08:16:33;;;;;;;3.63;1.02;;;22.40;39.50;;;;;;5051723;28;20556;-51
2024/02/05 08:19:00;;;;;;;5.93;1.10;;;22.40;39.50;;;;;;5052168;28;20269;-54
2024/02/05 08:21:27;;;;;;;2.13;0.98;;;22.40;39.60;;;;;;5052061;28;20614;-53
2024/02/05 08:23:54;;;;;;;2.47;1.02;;;22.50;39.60;;;;;;5051630;28;20247;-51
2024/02/05 08:26:22;;;;;;;3.90;1.17;;;22.50;39.60;;;;;;5051960;28;20265;-55
2024/02/05 08:28:49;;;;;;;3.67;0.90;;;22.50;39.50;;;;;;5051623;28;20228;-54
2024/02/05 08:31:16;;;;;;;2.88;1.02;;;22.50;39.50;;;;;;5051670;28;20192;-52
2024/02/05 08:33:43;;;;;;;2.15;0.88;;;22.50;39.50;;;;;;5051731;28;20215;-51
2024/02/05 08:36:10;;;;;;;1.85;0.90;;;22.60;39.50;;;;;;5051678;28;20223;-49
2024/02/05 08:38:37;;;;;;;2.25;0.90;;;22.60;39.50;;;;;;5051581;28;20293;-50
2024/02/05 08:41:04;;;;;;;2.28;0.80;;;22.60;39.50;;;;;;5051866;28;20192;-50
2024/02/05 08:43:32;;;;;;;2.08;0.90;;;22.60;39.50;;;;;;5052040;28;20326;-51
2024/02/05 08:45:59;;;;;;;1.45;0.70;;;22.60;39.50;;;;;;5051088;28;20584;-51
2024/02/05 08:48:26;;;;;;;2.05;0.90;;;22.60;39.40;;;;;;5051862;28;20331;-54
2024/02/05 08:50:53;;;;;;;2.60;0.60;;;22.60;39.40;;;;;;5051507;28;20228;-51
2024/02/05 08:53:19;;;;;;;1.98;0.88;;;22.60;39.40;;;;;;5051504;28;20306;-50
2024/02/05 08:55:46;;;;;;;1.98;0.90;;;22.60;39.40;;;;;;5051625;28;20302;-53
2024/02/05 08:58:13;;;;;;;1.65;0.63;;;22.50;39.40;;;;;;5051744;28;20460;-50
2024/02/05 09:00:42;;;;;;;1.95;0.82;;;22.50;39.50;;;;;;5050905;28;20198;-50
2024/02/05 09:03:10;;;;;;;1.25;0.80;;;22.50;39.50;;;;;;5052810;28;20302;-48
2024/02/05 09:05:37;;;;;;;5.00;0.88;;;22.50;39.60;;;;;;5055141;28;20218;-52
2024/02/05 09:08:06;;;;;;;2.78;0.77;;;22.40;39.50;;;;;;5054736;28;20219;-56
2024/02/05 09:10:33;;;;;;;1.70;0.75;;;22.50;39.60;;;;;;5055183;28;20211;-48
2024/02/05 09:12:59;;;;;;;1.73;0.73;;;22.40;39.50;;;;;;5054966;28;20308;-49
2024/02/05 09:15:26;;;;;;;0.52;0.50;;;22.40;39.60;;;;;;5054328;28;20219;-49
2024/02/05 09:17:55;;;;;;;1.85;0.77;;;22.40;39.70;;;;;;5054902;28;20223;-53
2024/02/05 09:20:22;;;;;;;1.80;0.98;;;22.40;39.60;;;;;;5055054;28;20195;-53
2024/02/05 09:22:49;;;;;;;1.38;0.65;;;22.40;39.70;;;;;;5054211;28;20227;-48
2024/02/05 09:25:16;;;;;;;2.15;0.77;;;22.40;39.70;;;;;;5054904;28;20271;-51
2024/02/05 09:27:42;;;;;;;1.85;0.65;;;22.40;39.70;;;;;;5054612;28;20711;-53
2024/02/05 09:30:09;;;;;;;3.00;0.80;;;22.40;39.70;;;;;;5054427;28;20194;-50
2024/02/05 09:32:37;;;;;;;1.80;0.77;;;22.50;39.70;;;;;;5054854;28;20224;-50
2024/02/05 09:35:06;;;;;;;1.30;0.63;;;22.50;39.70;;;;;;5054557;28;20252;-53
2024/02/05 09:37:33;;;;;;;2.45;0.98;;;22.50;39.70;;;;;;5053967;28;20645;-51
2024/02/05 09:39:59;;;;;;;0.95;0.50;;;22.50;39.60;;;;;;5054228;28;20188;-53
2024/02/05 09:42:28;;;;;;;1.15;0.60;;;22.50;39.60;;;;;;5054578;28;20306;-53
2024/02/05 09:44:56;;;;;;;0.60;0.50;;;22.50;39.60;;;;;;5054109;28;20188;-54
2024/02/05 09:47:24;;;;;;;1.05;0.52;;;22.60;39.60;;;;;;5054404;28;20223;-49
2024/02/05 09:49:54;;;;;;;1.75;0.73;;;22.60;39.60;;;;;;5054322;28;20202;-48
2024/02/05 09:52:24;;;;;;;0.88;0.70;;;22.60;39.60;;;;;;5054035;28;20194;-52
2024/02/05 09:54:54;;;;;;;1.35;0.60;;;22.60;39.60;;;;;;5054288;28;20219;-53
2024/02/05 09:57:24;;;;;;;1.30;0.73;;;22.60;40.20;;;;;;5054174;28;20192;-56
2024/02/05 09:59:51;;;;;;;1.77;0.55;;;22.60;39.40;;;;;;5053983;28;20628;-51
2024/02/05 10:02:20;;;;;;;0.88;0.60;;;22.60;39.50;;;;;;5053917;28;20637;-57
2024/02/05 10:04:50;;;;;;;1.58;0.57;;;22.60;39.50;;;;;;5054186;28;20219;-54
2024/02/05 10:07:19;;;;;;;1.63;0.70;;;22.50;39.50;;;;;;5053641;28;20241;-54
2024/02/05 10:09:49;;;;;;;0.73;0.55;;;22.50;39.60;;;;;;5054121;28;20192;-50
2024/02/05 10:12:17;;;;;;;2.00;0.90;;;22.50;39.70;;;;;;5053870;28;20219;-50
2024/02/05 10:14:44;;;;;;;1.90;0.80;;;22.50;39.70;;;;;;5052417;28;20192;-47
2024/02/05 10:17:11;;;;;;;1.77;0.50;;;22.40;39.70;;;;;;5053514;28;20192;-49
2024/02/05 10:19:38;;;;;;;1.73;0.60;;;22.40;39.70;;;;;;5053655;28;20245;-52
2024/02/05 10:22:05;;;;;;;1.23;0.47;;;22.40;39.80;;;;;;5053478;28;20191;-53
2024/02/05 10:24:34;;;;;;;1.85;0.50;;;22.40;39.80;;;;;;5053788;28;20225;-51
2024/02/05 10:27:02;;;;;;;0.75;0.40;;;22.40;39.80;;;;;;5053747;28;20188;-52
2024/02/05 10:29:29;;;;;;;1.02;0.60;;;22.40;39.80;;;;;;5053469;28;20215;-49
2024/02/05 10:31:58;;;;;;;1.73;0.80;;;22.40;40.00;;;;;;5053602;28;20188;-52
2024/02/05 10:34:25;;;;;;;1.75;0.90;;;22.40;40.20;;;;;;5053717;28;20212;-51
2024/02/05 10:36:53;;;;;;;1.65;0.70;;;22.40;40.70;;;;;;5053350;28;20314;-47
2024/02/05 10:39:22;;;;;;;0.88;0.75;;;22.30;41.10;;;;;;5053625;28;20303;-50
2024/02/05 10:41:49;;;;;;;3.08;0.95;;;22.40;42.10;;;;;;5053110;28;20215;-55
2024/02/05 10:44:17;;;;;;;6.00;0.70;;;22.50;42.90;;;;;;5053036;28;20222;-50
2024/02/05 10:46:45;;;;;;;2.08;0.70;;;22.50;43.00;;;;;;5053241;28;20631;-57
2024/02/05 10:49:12;;;;;;;1.25;0.60;;;22.50;43.30;;;;;;5053244;28;20222;-51
2024/02/05 10:51:40;;;;;;;1.67;0.70;;;22.60;43.50;;;;;;5052692;28;20261;-52
2024/02/05 10:54:07;;;;;;;4.60;0.70;;;22.60;43.50;;;;;;5053302;28;20215;-50
2024/02/05 10:56:35;;;;;;;1.30;0.80;;;22.60;43.80;;;;;;5053025;28;20216;-55
2024/02/05 10:59:03;;;;;;;1.25;0.70;;;22.60;43.90;;;;;;5052859;28;20230;-51
2024/02/05 11:01:39;;;;;;;2.38;0.80;;;22.70;44.10;;;;;;5053068;28;20187;-52
2024/02/05 11:04:09;;;;;;;2.45;0.80;;;22.70;44.10;;;;;;5053255;28;20223;-50
2024/02/05 11:06:39;;;;;;;1.10;0.50;;;22.70;44.20;;;;;;5052198;28;20645;-55
2024/02/05 11:09:10;;;;;;;1.25;0.50;;;22.70;44.10;;;;;;5053057;28;20302;-52
2024/02/05 11:11:38;;;;;;;1.98;0.70;;;22.70;44.00;;;;;;5052950;28;20198;-55
2024/02/05 11:14:08;;;;;;;2.55;0.80;;;22.70;43.90;;;;;;5052680;28;20515;-52
2024/02/05 11:16:40;;;;;;;0.93;0.70;;;22.70;43.90;;;;;;5052151;28;20222;-53
2024/02/05 11:19:09;;;;;;;1.00;0.70;;;22.60;43.70;;;;;;5052495;28;20704;-54
2024/02/05 11:21:42;;;;;;;0.82;0.65;;;22.60;43.70;;;;;;5052304;28;20200;-52
2024/02/05 11:24:11;;;;;;;1.75;0.80;;;22.60;43.70;;;;;;5052570;28;20247;-55
2024/02/05 11:26:40;;;;;;;1.67;0.70;;;22.60;43.80;;;;;;5052394;28;20188;-50
2024/02/05 11:29:06;;;;;;;1.17;0.50;;;22.60;43.70;;;;;;5052262;28;20219;-51
2024/02/05 11:31:39;;;;;;;1.95;1.13;;;22.50;43.50;;;;;;5052590;28;20194;-57
2024/02/05 11:34:08;;;;;;;4.65;0.95;;;22.50;43.40;;;;;;5052659;28;20215;-52
2024/02/05 11:36:35;;;;;;;1.25;0.60;;;22.50;43.40;;;;;;5051965;28;20219;-54
2024/02/05 11:39:04;;;;;;;0.88;0.50;;;22.50;43.50;;;;;;5052707;28;20219;-52
2024/02/05 11:41:31;;;;;;;0.65;0.60;;;22.50;43.40;;;;;;5052565;28;20198;-52
2024/02/05 11:44:05;;;;;;;0.85;0.70;;;22.50;43.40;;;;;;5051729;28;20302;-53
2024/02/05 11:46:33;;;;;;;0.80;0.45;;;22.50;43.40;;;;;;5052266;28;20630;-54
2024/02/05 11:49:02;;;;;;;0.70;0.60;;;22.50;43.30;;;;;;5052281;28;20215;-53
2024/02/05 11:51:29;;;;;;;0.82;0.57;;;22.50;43.30;;;;;;5051681;28;20231;-53
2024/02/05 11:53:56;;;;;;;1.13;0.60;;;22.50;43.20;;;;;;5052345;28;20309;-55
2024/02/05 11:56:24;;;;;;;1.17;0.60;;;22.50;43.00;;;;;;5052176;28;20223;-50
2024/02/05 11:58:51;;;;;;;0.52;0.47;;;22.60;42.90;;;;;;5051780;28;20226;-54
2024/02/05 12:01:18;;;;;;;0.82;0.70;;;22.50;42.80;;;;;;5052215;28;20198;-56
2024/02/05 12:03:46;;;;;;;1.20;0.63;;;22.60;42.80;;;;;;5052346;28;20270;-51
2024/02/05 12:06:15;;;;;;;0.73;0.57;;;22.60;42.70;;;;;;5051735;28;20195;-53
2024/02/05 12:08:42;;;;;;;2.83;0.80;;;22.60;42.70;;;;;;5052044;28;20215;-49
2024/02/05 12:11:11;;;;;;;3.03;0.88;;;22.60;42.60;;;;;;5051894;28;20640;-56
2024/02/05 12:13:39;;;;;;;0.50;0.50;;;22.60;42.50;;;;;;5051687;28;20273;-53
2024/02/05 12:16:13;;;;;;;1.73;0.90;;;22.60;42.40;;;;;;5052002;28;20215;-55
2024/02/05 12:18:40;;;;;;;0.80;0.60;;;22.60;42.30;;;;;;5051932;28;20641;-56
2024/02/05 12:21:07;;;;;;;1.20;0.60;;;22.60;42.20;;;;;;5051551;28;20629;-56
2024/02/05 12:23:38;;;;;;;1.10;0.55;;;22.60;42.20;;;;;;5051972;28;20288;-52
2024/02/05 12:26:05;;;;;;;2.30;0.85;;;22.60;42.80;;;;;;5052056;28;20242;-48
2024/02/05 12:28:32;;;;;;;1.17;0.60;;;22.60;42.10;;;;;;5051526;28;20215;-53
2024/02/05 12:30:59;;;;;;;0.68;0.47;;;22.60;42.10;;;;;;5052025;28;20198;-58
2024/02/05 12:33:27;;;;;;;0.75;0.50;;;22.50;42.10;;;;;;5051578;28;20768;-59
2024/02/05 12:36:00;;;;;;;0.82;0.60;;;22.50;42.10;;;;;;5051423;28;20298;-56
2024/02/05 12:38:28;;;;;;;1.25;0.70;;;22.50;42.10;;;;;;5053251;28;20298;-53
2024/02/05 12:40:57;;;;;;;0.73;0.50;;;22.50;42.10;;;;;;5055820;28;20278;-53
2024/02/05 12:43:26;;;;;;;1.40;0.50;;;22.50;42.10;;;;;;5055335;28;20218;-53
2024/02/05 12:45:53;;;;;;;1.17;0.68;;;22.50;42.10;;;;;;5055692;28;20198;-51